createdAt,value
2022-09-12T00:01:28.923Z,56.22
2022-09-12T00:03:00.631Z,56.35
2022-09-12T00:04:32.146Z,56.14
2022-09-12T00:06:08.020Z,56.46
2022-09-12T00:07:39.834Z,56.33
2022-09-12T00:09:12.328Z,56.38
2022-09-12T00:10:43.997Z,56.35
2022-09-12T00:12:15.984Z,56.37
2022-09-12T00:13:47.562Z,56.36
2022-09-12T00:15:19.163Z,56.45
2022-09-12T00:16:50.699Z,56.47
2022-09-12T00:18:22.170Z,56.39
2022-09-12T00:19:53.707Z,56.58
2022-09-12T00:21:25.650Z,56.43
2022-09-12T00:22:57.376Z,56.62
2022-09-12T00:24:28.959Z,56.55
2022-09-12T00:26:00.699Z,56.43
2022-09-12T00:27:32.252Z,56.41
2022-09-12T00:29:03.718Z,56.60
2022-09-12T00:30:35.472Z,56.58
2022-09-12T00:32:06.945Z,56.46
2022-09-12T00:33:38.561Z,56.67
2022-09-12T00:35:10.181Z,56.68
2022-09-12T00:36:41.767Z,56.62
2022-09-12T00:38:13.670Z,56.60
2022-09-12T00:39:45.162Z,56.61
2022-09-12T00:41:16.697Z,56.75
2022-09-12T00:42:48.209Z,56.79
2022-09-12T00:44:22.427Z,56.68
2022-09-12T00:45:54.564Z,56.76
2022-09-12T00:47:29.686Z,56.60
2022-09-12T00:49:01.369Z,56.65
2022-09-12T00:50:32.952Z,56.75
2022-09-12T00:52:04.637Z,56.78
2022-09-12T00:53:36.436Z,56.60
2022-09-12T00:55:10.081Z,56.62
2022-09-12T00:56:41.918Z,56.70
2022-09-12T00:58:36.287Z,56.81
2022-09-12T01:00:14.310Z,56.80
2022-09-12T01:01:46.008Z,56.68
2022-09-12T01:03:18.484Z,56.84
2022-09-12T01:04:50.264Z,56.56
2022-09-12T01:06:24.058Z,56.86
2022-09-12T01:07:56.480Z,56.84
2022-09-12T01:09:28.007Z,56.77
2022-09-12T01:10:59.496Z,56.82
2022-09-12T01:12:31.511Z,56.95
2022-09-12T01:14:03.031Z,57.19
2022-09-12T01:15:35.157Z,57.04
2022-09-12T01:17:06.648Z,57.04
2022-09-12T01:18:42.023Z,56.95
2022-09-12T01:20:46.254Z,56.87
2022-09-12T01:22:35.972Z,56.85
2022-09-12T01:24:31.046Z,57.10
2022-09-12T01:26:09.113Z,56.86
2022-09-12T01:27:40.742Z,56.87
2022-09-12T01:29:12.369Z,57.18
2022-09-12T01:31:02.352Z,57.45
2022-09-12T01:32:46.914Z,57.07
2022-09-12T01:34:20.870Z,57.22
2022-09-12T01:35:55.176Z,56.91
2022-09-12T01:37:33.479Z,57.08
2022-09-12T01:39:17.384Z,56.82
2022-09-12T01:40:52.019Z,56.94
2022-09-12T01:42:42.371Z,56.84
2022-09-12T01:44:15.456Z,56.76
2022-09-12T01:45:48.274Z,56.79
2022-09-12T01:47:43.006Z,57.28
2022-09-12T01:49:25.451Z,56.93
2022-09-12T01:51:00.410Z,56.90
2022-09-12T01:52:33.411Z,56.84
2022-09-12T01:54:20.844Z,56.79
2022-09-12T01:55:54.098Z,56.85
2022-09-12T01:57:27.979Z,57.01
2022-09-12T01:59:02.373Z,57.06
2022-09-12T02:00:34.817Z,57.31
2022-09-12T02:02:16.442Z,57.38
2022-09-12T02:03:52.688Z,57.32
2022-09-12T02:05:37.042Z,56.91
2022-09-12T02:07:11.770Z,57.39
2022-09-12T02:08:45.299Z,57.39
2022-09-12T02:10:20.843Z,57.13
2022-09-12T02:11:52.786Z,57.07
2022-09-12T02:13:36.258Z,57.48
2022-09-12T02:15:08.426Z,57.67
2022-09-12T02:16:40.256Z,57.19
2022-09-12T02:18:14.728Z,57.26
2022-09-12T02:19:51.562Z,57.30
2022-09-12T02:21:23.247Z,57.15
2022-09-12T02:22:55.210Z,57.59
2022-09-12T02:24:30.526Z,57.28
2022-09-12T02:26:03.826Z,57.35
2022-09-12T02:27:49.722Z,57.43
2022-09-12T02:29:21.365Z,57.35
2022-09-12T02:31:02.123Z,57.40
2022-09-12T02:32:38.251Z,57.51
2022-09-12T02:34:09.789Z,57.09
2022-09-12T02:35:52.417Z,57.36
2022-09-12T02:37:26.054Z,57.50
2022-09-12T02:38:57.936Z,57.34
2022-09-12T02:40:30.212Z,57.38
2022-09-12T02:42:01.965Z,57.67
2022-09-12T02:43:33.554Z,57.43
2022-09-12T02:45:05.525Z,57.59
2022-09-12T02:46:39.210Z,57.23
2022-09-12T02:48:21.575Z,57.52
2022-09-12T02:49:53.435Z,57.73
2022-09-12T02:51:25.114Z,57.29
2022-09-12T02:53:04.018Z,57.59
2022-09-12T02:54:35.561Z,57.41
2022-09-12T02:56:07.880Z,57.46
2022-09-12T02:57:39.508Z,57.62
2022-09-12T02:59:11.890Z,57.67
2022-09-12T03:01:03.928Z,57.67
2022-09-12T03:02:38.444Z,57.78
2022-09-12T03:04:28.471Z,58.04
2022-09-12T03:06:01.022Z,57.97
2022-09-12T03:07:38.632Z,57.86
2022-09-12T03:09:29.049Z,58.04
2022-09-12T03:11:19.386Z,58.23
2022-09-12T03:13:00.551Z,58.05
2022-09-12T03:14:37.889Z,58.03
2022-09-12T03:16:09.494Z,58.15
2022-09-12T03:17:47.209Z,58.02
2022-09-12T03:19:24.767Z,57.81
2022-09-12T03:21:02.465Z,57.76
2022-09-12T03:22:34.529Z,57.59
2022-09-12T03:24:06.073Z,57.45
2022-09-12T03:25:57.881Z,57.40
2022-09-12T03:27:30.396Z,57.51
2022-09-12T03:29:02.079Z,57.87
2022-09-12T03:30:47.069Z,57.64
2022-09-12T03:32:18.813Z,57.97
2022-09-12T03:33:50.502Z,57.81
2022-09-12T03:35:24.587Z,57.81
2022-09-12T03:36:56.121Z,57.97
2022-09-12T03:38:27.903Z,57.81
2022-09-12T03:39:59.459Z,57.75
2022-09-12T03:41:30.964Z,58.04
2022-09-12T03:43:02.836Z,58.07
2022-09-12T03:44:34.549Z,58.04
2022-09-12T03:46:06.258Z,58.04
2022-09-12T03:47:37.839Z,58.04
2022-09-12T03:49:09.330Z,57.98
2022-09-12T03:50:40.948Z,58.16
2022-09-12T03:52:12.564Z,58.20
2022-09-12T03:53:44.259Z,58.36
2022-09-12T03:55:16.017Z,58.30
2022-09-12T03:56:47.514Z,58.22
2022-09-12T03:58:19.045Z,58.27
2022-09-12T03:59:50.810Z,58.21
2022-09-12T04:01:22.481Z,58.12
2022-09-12T04:02:55.541Z,58.33
2022-09-12T04:04:27.234Z,58.23
2022-09-12T04:05:58.752Z,58.24
2022-09-12T04:07:30.332Z,57.92
2022-09-12T04:09:01.961Z,57.96
2022-09-12T04:10:33.471Z,58.27
2022-09-12T04:12:05.183Z,58.15
2022-09-12T04:13:36.894Z,58.01
2022-09-12T04:15:09.047Z,58.31
2022-09-12T04:16:40.575Z,58.41
2022-09-12T04:18:12.104Z,58.31
2022-09-12T04:19:43.672Z,58.43
2022-09-12T04:21:16.564Z,58.08
2022-09-12T04:22:48.070Z,58.12
2022-09-12T04:24:19.734Z,58.08
2022-09-12T04:25:57.512Z,58.50
2022-09-12T04:27:29.444Z,58.16
2022-09-12T04:29:00.958Z,58.61
2022-09-12T04:30:33.708Z,58.62
2022-09-12T04:32:05.359Z,58.75
2022-09-12T04:33:37.149Z,58.67
2022-09-12T04:35:09.048Z,58.71
2022-09-12T04:36:40.617Z,58.46
2022-09-12T04:38:12.106Z,58.57
2022-09-12T04:39:43.794Z,58.08
2022-09-12T04:41:15.712Z,58.36
2022-09-12T04:42:47.290Z,58.07
2022-09-12T04:44:18.901Z,58.14
2022-09-12T04:45:50.630Z,58.03
2022-09-12T04:47:23.255Z,58.10
2022-09-12T04:48:57.004Z,58.00
2022-09-12T04:50:28.989Z,58.44
2022-09-12T04:52:00.857Z,58.53
2022-09-12T04:53:32.830Z,58.75
2022-09-12T04:55:04.637Z,58.90
2022-09-12T04:56:39.324Z,58.99
2022-09-12T04:58:10.912Z,58.89
2022-09-12T04:59:42.811Z,58.99
2022-09-12T05:01:15.564Z,58.99
2022-09-12T05:02:47.349Z,58.67
2022-09-12T05:04:19.625Z,58.71
2022-09-12T05:05:54.508Z,58.59
2022-09-12T05:07:27.983Z,58.52
2022-09-12T05:08:59.824Z,58.50
2022-09-12T05:10:31.561Z,58.83
2022-09-12T05:12:04.986Z,58.87
2022-09-12T05:13:37.918Z,58.32
2022-09-12T05:15:09.873Z,58.23
2022-09-12T05:16:41.478Z,58.08
2022-09-12T05:18:13.066Z,58.00
2022-09-12T05:19:44.552Z,58.05
2022-09-12T05:21:16.811Z,57.84
2022-09-12T05:22:48.473Z,57.89
2022-09-12T05:24:19.971Z,58.01
2022-09-12T05:25:51.733Z,58.15
2022-09-12T05:27:23.550Z,58.04
2022-09-12T05:28:55.200Z,58.10
2022-09-12T05:30:27.067Z,58.11
2022-09-12T05:31:58.662Z,57.82
2022-09-12T05:33:30.501Z,58.05
2022-09-12T05:35:02.226Z,58.14
2022-09-12T05:36:34.016Z,58.29
2022-09-12T05:38:06.356Z,58.02
2022-09-12T05:39:37.950Z,57.93
2022-09-12T05:41:13.474Z,57.90
2022-09-12T05:42:48.550Z,57.70
2022-09-12T05:44:20.118Z,57.61
2022-09-12T05:45:51.754Z,57.28
2022-09-12T05:47:23.737Z,57.42
2022-09-12T05:48:56.576Z,57.51
2022-09-12T05:50:29.087Z,57.69
2022-09-12T05:52:00.704Z,57.54
2022-09-12T05:53:32.648Z,57.46
2022-09-12T05:55:04.599Z,57.35
2022-09-12T05:56:39.817Z,57.25
2022-09-12T05:58:11.324Z,57.50
2022-09-12T05:59:43.600Z,57.28
2022-09-12T06:01:15.837Z,57.24
2022-09-12T06:02:54.012Z,57.46
2022-09-12T06:04:25.621Z,57.35
2022-09-12T06:05:57.386Z,57.15
2022-09-12T06:07:30.107Z,57.05
2022-09-12T06:09:02.059Z,57.32
2022-09-12T06:10:35.579Z,57.19
2022-09-12T06:12:08.871Z,56.84
2022-09-12T06:13:40.503Z,56.71
2022-09-12T06:15:12.228Z,56.61
2022-09-12T06:16:43.978Z,56.64
2022-09-12T06:18:15.519Z,56.52
2022-09-12T06:19:47.141Z,56.51
2022-09-12T06:21:18.965Z,56.42
2022-09-12T06:22:53.390Z,56.24
2022-09-12T06:24:24.971Z,56.53
2022-09-12T06:25:56.643Z,56.49
2022-09-12T06:27:28.279Z,56.66
2022-09-12T06:29:00.482Z,56.60
2022-09-12T06:30:32.264Z,56.57
2022-09-12T06:39:57.286Z,56.76
2022-09-12T06:41:29.459Z,56.81
2022-09-12T06:43:01.044Z,56.83
2022-09-12T06:44:32.520Z,56.73
2022-09-12T06:46:04.161Z,56.50
2022-09-12T06:47:35.802Z,56.41
2022-09-12T06:49:08.263Z,56.20
2022-09-12T06:50:39.786Z,55.98
2022-09-12T06:52:11.547Z,56.17
2022-09-12T06:53:44.592Z,55.95
2022-09-12T06:55:19.794Z,56.16
2022-09-12T06:56:52.708Z,56.61
2022-09-12T06:58:24.858Z,56.58
2022-09-12T06:59:56.758Z,56.31
2022-09-12T07:01:29.242Z,55.87
2022-09-12T07:03:00.800Z,55.83
2022-09-12T07:04:33.905Z,55.60
2022-09-12T07:06:06.482Z,55.47
2022-09-12T07:07:38.323Z,55.26
2022-09-12T07:09:10.786Z,54.98
2022-09-12T07:10:42.450Z,55.10
2022-09-12T07:12:14.261Z,54.83
2022-09-12T07:13:46.693Z,54.92
2022-09-12T07:15:18.461Z,54.80
2022-09-12T07:16:50.883Z,54.76
2022-09-12T07:18:22.880Z,54.72
2022-09-12T07:19:54.812Z,54.90
2022-09-12T07:21:26.437Z,54.68
2022-09-12T07:22:58.030Z,54.70
2022-09-12T07:24:29.549Z,54.60
2022-09-12T07:26:01.727Z,54.64
2022-09-12T07:27:33.259Z,54.32
2022-09-12T07:29:32.258Z,54.28
2022-09-12T07:30:57.172Z,54.08
2022-09-12T07:32:28.693Z,54.05
2022-09-12T07:34:00.300Z,54.27
2022-09-12T07:35:33.779Z,54.25
2022-09-12T07:37:06.004Z,54.24
2022-09-12T07:38:38.036Z,54.21
2022-09-12T07:40:10.492Z,54.03
2022-09-12T07:41:42.233Z,54.13
2022-09-12T07:43:13.945Z,54.34
2022-09-12T07:44:46.164Z,54.27
2022-09-12T07:46:17.695Z,54.10
2022-09-12T07:47:49.672Z,54.44
2022-09-12T07:49:21.521Z,54.33
2022-09-12T07:51:01.796Z,54.17
2022-09-12T07:52:33.689Z,54.44
2022-09-12T07:54:08.574Z,54.56
2022-09-12T07:55:40.967Z,54.64
2022-09-12T07:57:12.750Z,54.57
2022-09-12T07:58:44.538Z,54.34
2022-09-12T08:00:16.665Z,54.67
2022-09-12T08:01:48.447Z,54.42
2022-09-12T08:03:20.364Z,54.43
2022-09-12T08:04:52.026Z,54.52
2022-09-12T08:06:25.560Z,54.74
2022-09-12T08:07:57.902Z,54.60
2022-09-12T08:09:30.845Z,54.58
2022-09-12T08:11:02.873Z,54.54
2022-09-12T08:12:34.903Z,54.20
2022-09-12T08:14:06.440Z,54.13
2022-09-12T08:15:38.080Z,54.01
2022-09-12T08:17:09.915Z,53.84
2022-09-12T08:18:41.695Z,53.73
2022-09-12T08:20:13.239Z,53.71
2022-09-12T08:21:45.019Z,53.46
2022-09-12T08:23:18.356Z,53.38
2022-09-12T08:24:49.975Z,53.41
2022-09-12T08:26:21.699Z,53.19
2022-09-12T08:27:53.557Z,53.05
2022-09-12T08:29:25.161Z,53.00
2022-09-12T08:31:03.946Z,52.68
2022-09-12T08:32:35.926Z,52.80
2022-09-12T08:34:08.419Z,52.58
2022-09-12T08:35:40.550Z,52.08
2022-09-12T08:37:12.793Z,51.96
2022-09-12T08:38:46.018Z,51.89
2022-09-12T08:40:19.029Z,51.59
2022-09-12T08:44:05.129Z,51.57
2022-09-12T08:45:43.491Z,51.24
2022-09-12T08:47:33.800Z,51.35
2022-09-12T08:49:05.446Z,51.36
2022-09-12T08:50:37.175Z,51.50
2022-09-12T08:52:15.845Z,51.44
2022-09-12T08:53:48.134Z,51.13
2022-09-12T08:55:26.712Z,50.88
2022-09-12T08:56:59.761Z,50.60
2022-09-12T08:58:32.270Z,50.50
2022-09-12T09:00:04.729Z,50.54
2022-09-12T09:01:38.590Z,50.26
2022-09-12T09:03:17.971Z,50.09
2022-09-12T09:04:53.145Z,50.34
2022-09-12T09:06:27.792Z,50.25
2022-09-12T09:08:21.373Z,49.96
2022-09-12T09:10:08.045Z,49.85
2022-09-12T09:11:42.993Z,49.60
2022-09-12T09:13:51.864Z,49.71
2022-09-12T09:15:29.774Z,49.51
2022-09-12T09:17:03.904Z,49.53
2022-09-12T09:18:38.566Z,49.56
2022-09-12T09:20:29.095Z,49.50
2022-09-12T09:22:03.228Z,49.15
2022-09-12T09:23:43.230Z,48.93
2022-09-12T09:25:23.074Z,48.62
2022-09-12T09:27:14.254Z,48.81
2022-09-12T09:28:57.584Z,48.62
2022-09-12T09:30:29.268Z,48.93
2022-09-12T09:32:01.196Z,48.99
2022-09-12T09:33:35.446Z,48.71
2022-09-12T09:35:25.766Z,48.54
2022-09-12T09:37:01.748Z,48.34
2022-09-12T09:38:54.203Z,48.21
2022-09-12T09:40:35.290Z,48.19
2022-09-12T09:42:13.474Z,48.26
2022-09-12T09:43:45.311Z,48.20
2022-09-12T09:45:20.986Z,48.16
2022-09-12T09:46:54.020Z,48.10
2022-09-12T09:48:27.088Z,47.89
2022-09-12T09:49:59.057Z,47.93
2022-09-12T09:51:34.585Z,47.52
2022-09-12T09:53:06.262Z,47.41
2022-09-12T09:54:41.692Z,47.67
2022-09-12T09:56:23.168Z,47.41
2022-09-12T09:57:55.042Z,47.70
2022-09-12T09:59:30.137Z,47.61
2022-09-12T10:01:02.684Z,47.53
2022-09-12T10:02:34.472Z,47.05
2022-09-12T10:04:07.570Z,46.98
2022-09-12T10:05:49.483Z,46.91
2022-09-12T10:07:21.986Z,46.79
2022-09-12T10:09:03.633Z,46.54
2022-09-12T10:10:35.358Z,46.68
2022-09-12T10:12:27.369Z,46.40
2022-09-12T10:14:01.609Z,46.68
2022-09-12T10:15:34.968Z,46.27
2022-09-12T10:17:23.342Z,46.42
2022-09-12T10:18:56.418Z,45.94
2022-09-12T10:20:30.627Z,46.41
2022-09-12T10:22:03.883Z,46.24
2022-09-12T10:23:41.429Z,45.89
2022-09-12T10:25:15.617Z,45.83
2022-09-12T10:26:53.262Z,45.67
2022-09-12T10:28:36.285Z,45.95
2022-09-12T10:30:17.781Z,45.96
2022-09-12T10:31:51.535Z,45.97
2022-09-12T10:33:23.586Z,46.18
2022-09-12T10:35:05.966Z,45.98
2022-09-12T10:36:38.912Z,45.98
2022-09-12T10:38:16.169Z,46.11
2022-09-12T10:39:54.813Z,45.87
2022-09-12T10:41:26.691Z,45.73
2022-09-12T10:43:01.245Z,45.76
2022-09-12T10:44:33.557Z,45.92
2022-09-12T10:46:24.423Z,45.40
2022-09-12T10:48:03.032Z,45.15
2022-09-12T10:49:40.487Z,45.25
2022-09-12T10:51:24.304Z,45.58
2022-09-12T10:52:59.474Z,45.53
2022-09-12T10:54:31.536Z,45.74
2022-09-12T10:56:06.942Z,45.52
2022-09-12T10:57:43.393Z,45.57
2022-09-12T10:59:34.383Z,45.11
2022-09-12T11:01:12.612Z,45.19
2022-09-12T11:02:44.263Z,45.18
2022-09-12T11:04:16.509Z,45.00
2022-09-12T11:05:48.318Z,45.05
2022-09-12T11:07:40.061Z,45.42
2022-09-12T11:09:29.959Z,45.05
2022-09-12T11:11:08.248Z,45.09
2022-09-12T11:13:00.123Z,45.10
2022-09-12T11:14:44.324Z,44.59
2022-09-12T11:16:15.979Z,44.55
2022-09-12T11:17:52.086Z,44.20
2022-09-12T11:19:29.845Z,44.56
2022-09-12T11:21:02.765Z,44.20
2022-09-12T11:22:53.170Z,44.15
2022-09-12T11:24:27.542Z,43.93
2022-09-12T11:26:04.868Z,44.38
2022-09-12T11:28:08.952Z,44.47
2022-09-12T11:29:40.569Z,44.35
2022-09-12T11:31:12.054Z,43.98
2022-09-12T11:32:43.908Z,44.25
2022-09-12T11:34:18.363Z,44.23
2022-09-12T11:35:54.949Z,43.97
2022-09-12T11:37:30.942Z,44.13
2022-09-12T11:39:11.771Z,43.93
2022-09-12T11:40:50.807Z,44.00
2022-09-12T11:42:24.164Z,43.57
2022-09-12T11:43:58.154Z,43.48
2022-09-12T11:45:30.539Z,43.54
2022-09-12T11:47:04.498Z,43.62
2022-09-12T11:48:43.101Z,43.67
2022-09-12T11:50:23.580Z,43.95
2022-09-12T11:52:15.795Z,43.68
2022-09-12T11:54:04.041Z,43.77
2022-09-12T11:55:55.804Z,43.89
2022-09-12T11:57:29.866Z,44.13
2022-09-12T11:59:03.964Z,44.01
2022-09-12T12:00:36.989Z,43.92
2022-09-12T12:02:12.012Z,43.71
2022-09-12T12:03:45.468Z,43.62
2022-09-12T12:05:21.080Z,43.60
2022-09-12T12:07:09.019Z,43.65
2022-09-12T12:08:41.903Z,43.77
2022-09-12T12:10:32.496Z,44.12
2022-09-12T12:12:06.725Z,43.86
2022-09-12T12:13:39.501Z,43.50
2022-09-12T12:15:14.246Z,43.70
2022-09-12T12:16:46.077Z,43.61
2022-09-12T12:18:23.357Z,43.37
2022-09-12T12:20:03.540Z,43.55
2022-09-12T12:21:43.907Z,43.24
2022-09-12T12:23:34.282Z,43.47
2022-09-12T12:25:08.745Z,43.31
2022-09-12T12:26:43.486Z,43.45
2022-09-12T12:28:15.007Z,43.13
2022-09-12T12:29:46.855Z,43.25
2022-09-12T12:31:18.681Z,43.20
2022-09-12T12:32:50.320Z,43.20
2022-09-12T12:34:23.723Z,43.34
2022-09-12T12:36:02.068Z,43.09
2022-09-12T12:37:40.145Z,43.01
2022-09-12T12:39:29.921Z,43.18
2022-09-12T12:41:16.958Z,43.17
2022-09-12T12:42:48.580Z,43.26
2022-09-12T12:44:38.916Z,43.03
2022-09-12T12:46:11.594Z,43.29
2022-09-12T12:47:44.041Z,43.27
2022-09-12T12:49:19.146Z,43.43
2022-09-12T12:50:51.006Z,43.29
2022-09-12T12:52:22.729Z,43.48
2022-09-12T12:53:54.433Z,43.38
2022-09-12T12:55:31.349Z,43.05
2022-09-12T12:57:14.788Z,43.07
2022-09-12T12:58:46.778Z,43.03
2022-09-12T13:00:21.686Z,42.81
2022-09-12T13:01:55.390Z,42.98
2022-09-12T13:03:28.747Z,42.78
2022-09-12T13:05:01.391Z,42.92
2022-09-12T13:06:36.691Z,43.03
2022-09-12T13:08:08.497Z,43.03
2022-09-12T13:09:44.587Z,43.11
2022-09-12T13:11:17.181Z,43.21
2022-09-12T13:12:49.710Z,43.05
2022-09-12T13:14:33.668Z,43.14
2022-09-12T13:16:05.827Z,43.22
2022-09-12T13:17:43.827Z,43.19
2022-09-12T13:19:24.771Z,43.15
2022-09-12T13:21:15.028Z,43.08
2022-09-12T13:22:47.634Z,43.08
2022-09-12T13:24:19.325Z,43.18
2022-09-12T13:25:54.721Z,43.18
2022-09-12T13:27:26.309Z,43.11
2022-09-12T13:29:16.276Z,43.20
2022-09-12T13:31:03.758Z,43.23
2022-09-12T13:32:35.627Z,43.28
2022-09-12T13:34:08.322Z,43.35
2022-09-12T13:35:43.572Z,43.32
2022-09-12T13:37:22.029Z,43.32
2022-09-12T13:38:56.863Z,43.27
2022-09-12T13:40:33.575Z,43.30
2022-09-12T13:42:05.197Z,43.35
2022-09-12T13:43:47.080Z,43.44
2022-09-12T13:45:23.955Z,43.64
2022-09-12T13:46:56.029Z,43.71
2022-09-12T13:48:27.908Z,43.76
2022-09-12T13:49:59.986Z,43.86
2022-09-12T13:51:32.605Z,43.86
2022-09-12T13:53:06.599Z,43.69
2022-09-12T13:54:38.601Z,43.62
2022-09-12T13:56:12.066Z,43.50
2022-09-12T13:57:43.818Z,43.59
2022-09-12T13:59:15.558Z,43.49
2022-09-12T14:00:48.135Z,43.35
2022-09-12T14:02:20.348Z,43.44
2022-09-12T14:04:28.210Z,43.41
2022-09-12T14:05:59.984Z,43.36
2022-09-12T14:07:31.775Z,43.48
2022-09-12T14:09:03.418Z,43.44
2022-09-12T14:10:35.795Z,43.40
2022-09-12T14:12:26.083Z,43.40
2022-09-12T14:13:58.238Z,43.30
2022-09-12T14:15:33.554Z,43.16
2022-09-12T14:17:24.599Z,43.13
2022-09-12T14:18:56.346Z,43.26
2022-09-12T14:20:34.203Z,43.21
2022-09-12T14:22:08.238Z,43.11
2022-09-12T14:23:42.950Z,43.02
2022-09-12T14:25:15.138Z,43.16
2022-09-12T14:26:47.723Z,43.18
2022-09-12T14:28:23.392Z,43.33
2022-09-12T14:30:09.147Z,43.33
2022-09-12T14:31:41.485Z,43.35
2022-09-12T14:33:13.090Z,43.33
2022-09-12T14:35:03.628Z,43.26
2022-09-12T14:36:42.524Z,43.15
2022-09-12T14:38:17.250Z,43.23
2022-09-12T14:39:49.171Z,43.10
2022-09-12T14:41:25.439Z,43.13
2022-09-12T14:43:01.085Z,43.20
2022-09-12T14:44:33.448Z,43.14
2022-09-12T14:46:06.247Z,43.05
2022-09-12T14:47:41.411Z,43.15
2022-09-12T14:49:15.757Z,43.11
2022-09-12T14:50:50.831Z,43.08
2022-09-12T14:52:35.022Z,43.19
2022-09-12T14:54:07.216Z,42.90
2022-09-12T14:55:54.010Z,43.05
2022-09-12T14:57:30.689Z,43.08
2022-09-12T14:59:21.038Z,43.03
2022-09-12T15:00:56.412Z,43.19
2022-09-12T15:02:28.048Z,43.16
2022-09-12T15:04:00.930Z,43.01
2022-09-12T15:05:33.256Z,43.13
2022-09-12T15:07:22.887Z,43.04
2022-09-12T15:08:55.369Z,43.05
2022-09-12T15:10:27.285Z,42.94
2022-09-12T15:11:58.788Z,43.00
2022-09-12T15:13:32.381Z,42.93
2022-09-12T15:15:13.800Z,42.87
2022-09-12T15:16:45.354Z,42.86
2022-09-12T15:18:16.978Z,42.86
2022-09-12T15:19:48.712Z,43.15
2022-09-12T15:21:20.414Z,43.15
2022-09-12T15:22:52.024Z,43.15
2022-09-12T15:24:23.879Z,43.32
2022-09-12T15:25:55.418Z,43.23
2022-09-12T15:27:26.904Z,43.32
2022-09-12T15:28:58.456Z,43.26
2022-09-12T15:30:30.194Z,43.35
2022-09-12T15:32:01.974Z,43.29
2022-09-12T15:33:33.551Z,43.32
2022-09-12T15:35:10.338Z,43.23
2022-09-12T15:36:41.907Z,43.45
2022-09-12T15:38:13.524Z,43.29
2022-09-12T15:39:46.878Z,43.49
2022-09-12T15:41:19.463Z,43.29
2022-09-12T15:42:50.973Z,43.34
2022-09-12T15:44:23.934Z,43.49
2022-09-12T15:45:55.575Z,43.44
2022-09-12T15:47:27.274Z,43.52
2022-09-12T15:48:58.843Z,43.51
2022-09-12T15:50:30.803Z,43.52
2022-09-12T15:52:02.503Z,43.56
2022-09-12T15:53:34.073Z,43.66
2022-09-12T15:55:06.138Z,43.62
2022-09-12T15:56:37.706Z,43.50
2022-09-12T15:58:09.580Z,43.43
2022-09-12T15:59:41.214Z,43.54
2022-09-12T16:01:13.472Z,43.52
2022-09-12T16:02:46.044Z,43.43
2022-09-12T16:04:24.565Z,43.34
2022-09-12T16:05:57.215Z,43.54
2022-09-12T16:07:28.775Z,43.49
2022-09-12T16:09:00.649Z,43.35
2022-09-12T16:10:32.199Z,43.27
2022-09-12T16:12:03.840Z,43.33
2022-09-12T16:13:35.739Z,43.19
2022-09-12T16:15:07.543Z,43.26
2022-09-12T16:16:39.127Z,43.27
2022-09-12T16:18:11.048Z,43.33
2022-09-12T16:19:42.867Z,43.32
2022-09-12T16:21:15.725Z,43.29
2022-09-12T16:22:48.037Z,43.19
2022-09-12T16:24:19.827Z,43.24
2022-09-12T16:25:58.313Z,43.28
2022-09-12T16:27:29.994Z,43.25
2022-09-12T16:29:01.824Z,43.29
2022-09-12T16:30:33.785Z,43.36
2022-09-12T16:32:05.915Z,43.26
2022-09-12T16:33:38.093Z,43.26
2022-09-12T16:35:09.932Z,43.38
2022-09-12T16:36:41.749Z,43.48
2022-09-12T16:38:13.259Z,43.31
2022-09-12T16:39:45.228Z,43.42
2022-09-12T16:41:17.440Z,43.35
2022-09-12T16:42:49.010Z,43.37
2022-09-12T16:44:20.715Z,43.32
2022-09-12T16:46:00.528Z,43.37
2022-09-12T16:47:32.598Z,43.30
2022-09-12T16:49:05.234Z,43.49
2022-09-12T16:50:36.741Z,43.42
2022-09-12T16:52:08.331Z,43.71
2022-09-12T16:53:39.858Z,43.74
2022-09-12T16:55:11.505Z,43.65
2022-09-12T16:56:43.345Z,43.86
2022-09-12T16:58:14.978Z,43.74
2022-09-12T16:59:46.635Z,43.79
2022-09-12T17:01:22.545Z,43.81
2022-09-12T17:02:54.576Z,44.06
2022-09-12T17:04:26.706Z,44.07
2022-09-12T17:06:01.719Z,44.00
2022-09-12T17:07:34.542Z,44.34
2022-09-12T17:09:06.475Z,44.38
2022-09-12T17:10:40.861Z,44.27
2022-09-12T17:12:12.465Z,44.43
2022-09-12T17:14:04.305Z,44.36
2022-09-12T17:15:37.919Z,44.32
2022-09-12T17:17:09.615Z,44.37
2022-09-12T17:18:41.084Z,44.30
2022-09-12T17:20:12.705Z,44.53
2022-09-12T17:21:45.120Z,44.35
2022-09-12T17:23:16.667Z,44.76
2022-09-12T17:24:48.351Z,44.78
2022-09-12T17:26:20.873Z,44.74
2022-09-12T17:27:52.477Z,44.89
2022-09-12T17:29:24.194Z,44.77
2022-09-12T17:30:56.945Z,44.82
2022-09-12T17:32:28.658Z,44.96
2022-09-12T17:34:01.162Z,45.05
2022-09-12T17:35:36.148Z,45.00
2022-09-12T17:37:07.653Z,44.99
2022-09-12T17:38:39.838Z,44.98
2022-09-12T17:40:12.363Z,45.08
2022-09-12T17:41:45.918Z,45.06
2022-09-12T17:43:17.808Z,45.35
2022-09-12T17:44:50.518Z,45.23
2022-09-12T17:46:22.369Z,45.20
2022-09-12T17:47:54.224Z,45.42
2022-09-12T17:49:26.099Z,45.38
2022-09-12T17:50:59.211Z,45.43
2022-09-12T17:52:30.875Z,45.59
2022-09-12T17:54:08.722Z,45.54
2022-09-12T17:55:42.276Z,45.47
2022-09-12T17:57:13.791Z,45.55
2022-09-12T17:58:45.287Z,45.44
2022-09-12T18:00:17.011Z,45.56
2022-09-12T18:02:07.572Z,45.67
2022-09-12T18:03:39.218Z,45.69
2022-09-12T18:05:10.757Z,45.54
2022-09-12T18:06:48.385Z,45.78
2022-09-12T18:08:20.278Z,45.64
2022-09-12T18:09:52.009Z,45.54
2022-09-12T18:11:23.599Z,45.61
2022-09-12T18:12:55.436Z,45.64
2022-09-12T18:14:27.887Z,45.87
2022-09-12T18:16:03.424Z,45.72
2022-09-12T18:17:35.429Z,45.89
2022-09-12T18:19:07.002Z,46.01
2022-09-12T18:20:38.580Z,46.09
2022-09-12T18:22:11.453Z,46.10
2022-09-12T18:23:43.261Z,46.08
2022-09-12T18:25:14.889Z,46.15
2022-09-12T18:26:46.416Z,46.30
2022-09-12T18:28:18.965Z,46.26
2022-09-12T18:30:10.326Z,46.42
2022-09-12T18:31:42.676Z,46.00
2022-09-12T18:33:14.195Z,46.31
2022-09-12T18:34:46.083Z,46.14
2022-09-12T18:36:17.873Z,46.42
2022-09-12T18:37:49.644Z,46.35
2022-09-12T18:39:25.361Z,46.41
2022-09-12T18:41:03.500Z,46.54
2022-09-12T18:42:35.328Z,46.52
2022-09-12T18:44:07.305Z,46.55
2022-09-12T18:45:38.848Z,46.66
2022-09-12T18:47:10.983Z,46.65
2022-09-12T18:48:42.569Z,46.67
2022-09-12T18:50:14.320Z,46.83
2022-09-12T18:51:45.985Z,46.87
2022-09-12T18:53:17.663Z,46.90
2022-09-12T18:54:49.249Z,46.90
2022-09-12T18:56:21.343Z,46.96
2022-09-12T18:57:53.059Z,46.83
2022-09-12T18:59:24.876Z,47.17
2022-09-12T19:00:56.776Z,47.05
2022-09-12T19:02:28.714Z,47.07
2022-09-12T19:04:01.174Z,47.00
2022-09-12T19:05:33.723Z,46.98
2022-09-12T19:07:05.593Z,47.11
2022-09-12T19:08:37.799Z,46.94
2022-09-12T19:10:09.363Z,46.98
2022-09-12T19:11:42.677Z,47.08
2022-09-12T19:13:14.312Z,47.23
2022-09-12T19:14:45.857Z,47.27
2022-09-12T19:16:18.646Z,47.25
2022-09-12T19:17:50.282Z,47.58
2022-09-12T19:19:21.958Z,47.71
2022-09-12T19:20:54.836Z,47.54
2022-09-12T19:22:27.681Z,47.84
2022-09-12T19:24:02.084Z,47.78
2022-09-12T19:25:35.037Z,48.01
2022-09-12T19:27:09.474Z,47.79
2022-09-12T19:28:41.888Z,48.13
2022-09-12T19:30:13.489Z,47.89
2022-09-12T19:31:45.155Z,48.01
2022-09-12T19:33:16.990Z,48.19
2022-09-12T19:34:48.574Z,48.12
2022-09-12T19:36:44.290Z,48.20
2022-09-12T19:38:13.598Z,48.13
2022-09-12T19:39:46.157Z,48.02
2022-09-12T19:41:19.124Z,48.44
2022-09-12T19:42:50.766Z,48.27
2022-09-12T19:44:23.748Z,48.44
2022-09-12T19:45:55.837Z,48.60
2022-09-12T19:47:27.525Z,48.48
2022-09-12T19:48:59.095Z,48.57
2022-09-12T19:50:33.745Z,48.65
2022-09-12T19:52:05.611Z,48.43
2022-09-12T19:53:38.424Z,48.50
2022-09-12T19:55:10.342Z,48.76
2022-09-12T19:56:42.120Z,48.58
2022-09-12T19:58:13.752Z,48.50
2022-09-12T19:59:46.230Z,48.47
2022-09-12T20:01:18.781Z,48.72
2022-09-12T20:02:51.557Z,48.61
2022-09-12T20:04:24.057Z,48.71
2022-09-12T20:06:01.713Z,48.55
2022-09-12T20:07:33.385Z,48.57
2022-09-12T20:09:05.102Z,48.59
2022-09-12T20:10:37.805Z,48.82
2022-09-12T20:12:09.397Z,48.80
2022-09-12T20:13:41.416Z,48.40
2022-09-12T20:15:13.020Z,48.68
2022-09-12T20:16:45.752Z,48.65
2022-09-12T20:18:17.273Z,48.93
2022-09-12T20:19:48.949Z,48.83
2022-09-12T20:21:20.921Z,48.98
2022-09-12T20:22:52.600Z,48.95
2022-09-12T20:24:24.309Z,49.05
2022-09-12T20:26:00.502Z,49.04
2022-09-12T20:27:32.087Z,48.95
2022-09-12T20:29:04.481Z,49.07